Time;durP1;ratioP1;P1;durP2;ratioP2;P2;SDS_P1;SDS_P2;PMS_P1;PMS_P2;Temp;Humidity;BMP_temperature;BMP_pressure;BME280_temperature;BME280_humidity;BME280_pressure;Samples;Min_cycle;Max_cycle;Signal;HPM_P1;HPM_P2
2023/05/05 00:00:53;;;;;;;3.92;3.13;;;20.50;60.00;;;;;;5034458;28;20022;-79
2023/05/05 00:03:23;;;;;;;3.75;2.55;;;20.50;60.10;;;;;;5018005;28;20175;-78
2023/05/05 00:05:51;;;;;;;3.78;2.90;;;20.50;60.10;;;;;;5036196;28;20033;-79
2023/05/05 00:08:17;;;;;;;3.67;2.95;;;20.50;60.10;;;;;;5035127;28;20049;-80
2023/05/05 00:10:49;;;;;;;3.67;2.70;;;20.40;60.00;;;;;;5034226;28;20167;-83
2023/05/05 00:13:15;;;;;;;4.10;3.10;;;20.40;60.10;;;;;;5035482;28;20072;-80
2023/05/05 00:15:42;;;;;;;3.45;2.80;;;20.40;60.20;;;;;;5034324;28;20475;-80
2023/05/05 00:18:09;;;;;;;3.28;2.83;;;20.40;60.20;;;;;;5034020;28;20103;-77
2023/05/05 00:20:34;;;;;;;4.50;2.97;;;20.30;60.20;;;;;;5018009;28;20025;-78
2023/05/05 00:23:00;;;;;;;4.18;3.08;;;20.30;60.20;;;;;;5003100;28;20470;-77
2023/05/05 00:25:26;;;;;;;4.30;3.25;;;20.30;60.20;;;;;;5034550;28;20121;-78
2023/05/05 00:27:52;;;;;;;4.20;2.90;;;20.30;60.20;;;;;;5034142;28;20029;-77
2023/05/05 00:30:18;;;;;;;3.33;2.67;;;20.20;60.20;;;;;;5033877;28;20037;-78
2023/05/05 00:32:47;;;;;;;4.20;3.17;;;20.20;60.30;;;;;;5034384;28;20048;-78
2023/05/05 00:35:12;;;;;;;3.35;2.88;;;20.20;60.30;;;;;;5017445;28;20053;-79
2023/05/05 00:37:38;;;;;;;3.63;2.80;;;20.20;60.40;;;;;;5000734;28;20073;-78
2023/05/05 00:40:05;;;;;;;3.58;2.92;;;20.20;60.40;;;;;;5033654;28;20026;-78
2023/05/05 00:42:42;;;;;;;4.38;3.05;;;20.10;60.40;;;;;;5001707;28;20037;-77
2023/05/05 00:45:10;;;;;;;3.70;3.00;;;20.10;60.40;;;;;;5034324;28;20515;-77
2023/05/05 00:47:36;;;;;;;4.72;3.10;;;20.10;60.40;;;;;;5001040;28;20026;-79
2023/05/05 00:50:05;;;;;;;3.90;3.20;;;20.00;60.50;;;;;;5033310;28;20044;-78
2023/05/05 00:52:31;;;;;;;3.97;3.05;;;20.00;60.50;;;;;;5033946;28;20034;-78
2023/05/05 00:54:57;;;;;;;3.47;3.03;;;20.00;60.50;;;;;;5033548;28;20040;-79
2023/05/05 00:57:24;;;;;;;3.97;3.17;;;20.00;60.60;;;;;;5017042;28;20036;-79
2023/05/05 00:59:51;;;;;;;3.95;3.20;;;20.00;60.60;;;;;;5034678;28;20466;-78
2023/05/05 01:02:18;;;;;;;4.07;3.03;;;19.90;60.60;;;;;;5033439;28;20025;-78
2023/05/05 01:04:43;;;;;;;4.35;3.08;;;19.90;60.60;;;;;;5000467;28;20029;-78
2023/05/05 01:07:16;;;;;;;4.10;3.17;;;19.90;60.60;;;;;;5016957;28;20105;-78
2023/05/05 01:10:11;;;;;;;3.97;3.03;;;19.80;60.60;;;;;;5034730;28;20161;-78
2023/05/05 01:12:55;;;;;;;3.40;2.60;;;19.80;60.70;;;;;;5035825;28;20026;-78
2023/05/05 01:15:33;;;;;;;4.30;3.15;;;19.80;60.60;;;;;;5033538;28;20573;-78
2023/05/05 01:18:10;;;;;;;3.83;2.92;;;19.80;60.70;;;;;;5033375;28;20029;-78
2023/05/05 01:20:52;;;;;;;3.95;2.85;;;19.70;60.70;;;;;;5034236;28;20079;-78
2023/05/05 01:23:42;;;;;;;4.70;2.95;;;19.70;60.70;;;;;;5033829;28;20036;-79
2023/05/05 01:26:41;;;;;;;3.70;2.83;;;19.70;60.70;;;;;;5034360;28;20021;-79
2023/05/05 01:29:31;;;;;;;3.78;2.92;;;19.60;60.80;;;;;;5027550;28;20153;-80
2023/05/05 01:32:28;;;;;;;3.78;2.80;;;19.60;60.80;;;;;;5032623;28;20148;-79
2023/05/05 01:35:13;;;;;;;3.28;2.78;;;19.60;60.90;;;;;;5016983;28;20107;-79
2023/05/05 01:37:54;;;;;;;3.90;2.92;;;19.60;60.90;;;;;;5032416;28;20053;-80
2023/05/05 01:40:27;;;;;;;3.78;3.10;;;19.60;60.90;;;;;;5049960;28;20036;-79
2023/05/05 01:42:55;;;;;;;4.53;3.25;;;19.60;60.90;;;;;;5033490;28;20453;-80
2023/05/05 01:45:25;;;;;;;4.72;3.33;;;19.50;60.90;;;;;;5033666;28;20018;-79
2023/05/05 01:47:52;;;;;;;3.95;3.17;;;19.50;60.90;;;;;;5033576;28;20116;-79
2023/05/05 01:50:19;;;;;;;3.45;3.10;;;19.50;60.90;;;;;;5016857;28;20048;-78
2023/05/05 01:52:46;;;;;;;3.60;3.15;;;19.50;61.00;;;;;;5016101;28;20075;-79
2023/05/05 01:55:15;;;;;;;5.35;3.28;;;19.50;61.00;;;;;;5034520;28;20047;-78
2023/05/05 01:57:43;;;;;;;4.50;3.33;;;19.40;61.00;;;;;;5032568;28;20458;-78
2023/05/05 02:00:10;;;;;;;4.28;3.35;;;19.40;61.00;;;;;;5015856;28;20060;-79
2023/05/05 02:02:46;;;;;;;4.40;3.40;;;19.40;61.00;;;;;;5002596;28;20481;-79
2023/05/05 02:05:13;;;;;;;5.40;3.28;;;19.40;61.10;;;;;;5032549;28;20100;-80
2023/05/05 02:07:39;;;;;;;4.05;3.05;;;19.40;61.10;;;;;;5032485;28;20041;-78
2023/05/05 02:10:06;;;;;;;4.57;3.47;;;19.40;61.10;;;;;;5032500;28;20034;-79
2023/05/05 02:12:34;;;;;;;5.07;3.80;;;19.30;61.10;;;;;;4999748;28;20029;-78
2023/05/05 02:15:01;;;;;;;5.10;3.83;;;19.30;61.10;;;;;;5032199;28;20602;-78
2023/05/05 02:17:29;;;;;;;4.80;3.60;;;19.30;61.80;;;;;;4999859;28;20052;-78
2023/05/05 02:19:57;;;;;;;4.93;4.05;;;19.30;61.20;;;;;;5032357;28;20033;-78
2023/05/05 02:22:23;;;;;;;4.72;3.85;;;19.30;61.20;;;;;;5032136;28;20025;-77
2023/05/05 02:24:49;;;;;;;5.13;4.00;;;19.30;61.20;;;;;;4999552;28;20034;-79
2023/05/05 02:27:19;;;;;;;4.80;3.65;;;19.30;61.30;;;;;;5000756;28;20029;-77
2023/05/05 02:29:56;;;;;;;5.22;4.07;;;19.20;61.20;;;;;;5032435;28;20076;-79
2023/05/05 02:32:29;;;;;;;5.32;3.88;;;19.20;61.40;;;;;;5031988;28;20029;-77
2023/05/05 02:35:00;;;;;;;4.97;4.00;;;19.20;61.30;;;;;;5015871;28;20059;-78
2023/05/05 02:37:30;;;;;;;5.47;4.22;;;19.20;61.30;;;;;;5031475;28;20085;-79
2023/05/05 02:40:04;;;;;;;6.72;4.68;;;19.20;61.30;;;;;;5032124;28;20478;-84
2023/05/05 02:42:35;;;;;;;6.22;4.20;;;19.20;61.30;;;;;;5032248;28;20462;-79
2023/05/05 02:45:11;;;;;;;5.50;4.38;;;19.10;61.30;;;;;;5031993;28;20034;-79
2023/05/05 02:47:40;;;;;;;4.38;3.85;;;19.10;61.40;;;;;;5016309;28;20496;-79
2023/05/05 02:50:07;;;;;;;7.10;5.15;;;19.10;61.40;;;;;;5035788;28;20051;-79
2023/05/05 02:52:36;;;;;;;5.28;4.22;;;19.10;61.40;;;;;;5036071;28;20045;-77
2023/05/05 02:55:03;;;;;;;5.10;4.25;;;19.00;61.30;;;;;;5019599;28;20064;-78
2023/05/05 02:57:54;;;;;;;6.00;4.70;;;19.10;61.40;;;;;;5019991;28;20041;-80
2023/05/05 03:00:46;;;;;;;5.90;4.55;;;19.10;61.40;;;;;;5035960;28;20029;-82
2023/05/05 03:03:35;;;;;;;6.28;4.32;;;19.00;61.40;;;;;;5019502;28;20037;-78
2023/05/05 03:06:13;;;;;;;5.25;4.20;;;19.00;61.40;;;;;;5035898;28;20030;-78
2023/05/05 03:09:20;;;;;;;5.47;4.82;;;18.90;61.40;;;;;;5035656;28;20025;-77
2023/05/05 03:11:59;;;;;;;5.47;4.68;;;18.90;61.50;;;;;;5034140;28;20041;-77
2023/05/05 03:14:29;;;;;;;5.88;4.75;;;18.90;61.50;;;;;;5035565;28;20103;-78
2023/05/05 03:16:56;;;;;;;5.72;4.82;;;18.80;61.50;;;;;;5035132;28;20025;-82
2023/05/05 03:19:23;;;;;;;7.82;5.47;;;18.80;61.50;;;;;;5035718;28;20092;-79
2023/05/05 03:21:54;;;;;;;5.45;4.53;;;18.80;61.50;;;;;;5019660;28;20029;-79
2023/05/05 03:24:20;;;;;;;6.15;5.22;;;18.80;61.60;;;;;;5035203;28;20040;-80
2023/05/05 03:26:56;;;;;;;6.70;4.95;;;18.70;61.50;;;;;;5020490;28;20025;-78
2023/05/05 03:29:28;;;;;;;6.10;4.93;;;18.80;61.60;;;;;;5036489;28;20030;-79
2023/05/05 03:31:55;;;;;;;6.68;5.07;;;18.70;61.60;;;;;;5018912;28;20043;-80
2023/05/05 03:34:21;;;;;;;7.20;5.30;;;18.70;61.60;;;;;;5018578;28;20363;-79
2023/05/05 03:36:47;;;;;;;5.88;5.22;;;18.70;61.70;;;;;;5018288;28;20025;-79
2023/05/05 03:39:14;;;;;;;7.60;5.70;;;18.60;61.60;;;;;;4986380;28;20050;-78
2023/05/05 03:41:40;;;;;;;6.15;5.50;;;18.60;61.60;;;;;;5019200;28;20091;-80
2023/05/05 03:44:08;;;;;;;6.70;5.70;;;18.60;61.70;;;;;;5018974;28;20053;-79
2023/05/05 03:46:35;;;;;;;7.20;6.07;;;18.60;61.70;;;;;;4986329;28;20037;-80
2023/05/05 03:49:01;;;;;;;7.32;6.18;;;18.60;61.80;;;;;;5034840;28;20406;-78
2023/05/05 03:51:27;;;;;;;6.90;5.80;;;18.50;61.80;;;;;;5034961;28;20034;-78
2023/05/05 03:53:53;;;;;;;7.43;5.72;;;18.50;61.80;;;;;;5018971;28;20396;-78
2023/05/05 03:56:19;;;;;;;7.15;6.32;;;18.50;61.80;;;;;;4987334;28;20034;-79
2023/05/05 03:58:45;;;;;;;6.00;5.05;;;18.50;61.90;;;;;;5035485;28;20037;-78
2023/05/05 04:01:12;;;;;;;7.25;6.13;;;18.50;61.90;;;;;;5035208;28;20488;-80
2023/05/05 04:03:38;;;;;;;7.50;6.18;;;18.40;61.90;;;;;;5018577;28;20164;-79
2023/05/05 04:06:04;;;;;;;7.20;6.18;;;18.40;61.90;;;;;;5034873;28;20120;-79
2023/05/05 04:08:31;;;;;;;7.18;6.03;;;18.40;62.00;;;;;;5035451;28;20026;-77
2023/05/05 04:10:57;;;;;;;7.25;6.32;;;18.40;62.00;;;;;;5017879;28;20051;-76
2023/05/05 04:13:23;;;;;;;7.38;6.03;;;18.40;62.00;;;;;;5018582;28;20478;-77
2023/05/05 04:15:49;;;;;;;7.93;6.13;;;18.40;62.10;;;;;;5034274;28;20042;-79
2023/05/05 04:18:16;;;;;;;7.63;6.30;;;18.30;62.10;;;;;;5034207;28;20029;-79
2023/05/05 04:20:42;;;;;;;7.20;6.10;;;18.30;62.10;;;;;;5001604;28;20030;-79
2023/05/05 04:23:09;;;;;;;6.55;5.85;;;18.30;62.10;;;;;;5035359;28;20378;-81
2023/05/05 04:25:35;;;;;;;7.60;6.80;;;18.30;62.80;;;;;;5038157;28;20045;-77
2023/05/05 04:28:01;;;;;;;7.32;6.40;;;18.20;62.20;;;;;;5036761;28;20034;-78
2023/05/05 04:30:27;;;;;;;8.77;6.63;;;18.20;62.20;;;;;;5019444;28;20029;-79
2023/05/05 04:32:53;;;;;;;7.65;6.55;;;18.20;62.20;;;;;;5019617;28;20037;-79
2023/05/05 04:35:19;;;;;;;7.95;6.43;;;18.20;62.30;;;;;;5035732;28;20037;-80
2023/05/05 04:37:45;;;;;;;7.95;6.15;;;18.10;62.30;;;;;;5034174;28;20049;-79
2023/05/05 04:40:12;;;;;;;7.75;6.82;;;18.10;62.30;;;;;;5017495;28;20030;-78
2023/05/05 04:42:39;;;;;;;6.88;6.18;;;18.10;62.30;;;;;;5033770;28;20030;-79
2023/05/05 04:45:07;;;;;;;7.03;6.32;;;18.10;62.40;;;;;;5017224;28;20040;-78
2023/05/05 04:47:39;;;;;;;7.00;6.20;;;18.10;62.40;;;;;;5033792;28;20029;-77
2023/05/05 04:50:06;;;;;;;6.93;5.85;;;18.10;62.40;;;;;;5034435;28;20042;-79
2023/05/05 04:52:32;;;;;;;6.97;5.95;;;18.00;62.40;;;;;;5033440;28;20029;-79
2023/05/05 04:54:58;;;;;;;7.03;5.80;;;18.00;62.50;;;;;;5033577;28;20040;-79
2023/05/05 04:57:24;;;;;;;7.82;6.38;;;18.00;62.50;;;;;;5033648;28;20455;-77
2023/05/05 04:59:51;;;;;;;6.00;5.18;;;18.00;62.50;;;;;;5033334;28;20481;-77
2023/05/05 05:02:17;;;;;;;7.25;6.18;;;18.00;62.50;;;;;;5034824;28;20129;-78
2023/05/05 05:04:43;;;;;;;7.40;6.15;;;17.90;62.50;;;;;;5033826;28;20425;-81
2023/05/05 05:07:10;;;;;;;6.10;5.32;;;17.90;62.50;;;;;;5016861;28;20033;-78
2023/05/05 05:09:37;;;;;;;6.60;5.40;;;17.90;62.60;;;;;;5016579;28;20028;-79
2023/05/05 05:12:03;;;;;;;6.78;5.82;;;17.80;62.60;;;;;;5032574;28;20030;-79
2023/05/05 05:14:29;;;;;;;6.57;5.35;;;17.80;62.60;;;;;;5033201;28;20450;-78
2023/05/05 05:16:55;;;;;;;6.35;5.28;;;17.80;62.70;;;;;;5033266;28;20029;-77
2023/05/05 05:19:22;;;;;;;6.03;5.38;;;17.80;62.60;;;;;;5032878;28;20034;-79
2023/05/05 05:21:48;;;;;;;6.45;5.53;;;17.80;62.70;;;;;;5016402;28;20033;-79
2023/05/05 05:24:14;;;;;;;6.28;5.03;;;17.80;62.70;;;;;;5016920;28;20123;-77
2023/05/05 05:26:40;;;;;;;6.40;5.38;;;17.70;62.70;;;;;;4983596;28;20034;-78
2023/05/05 05:29:06;;;;;;;5.88;4.65;;;17.80;62.80;;;;;;5032624;28;20033;-79
2023/05/05 05:31:33;;;;;;;6.82;5.50;;;17.70;62.70;;;;;;5016206;28;20037;-78
2023/05/05 05:34:00;;;;;;;6.07;5.05;;;17.70;62.80;;;;;;5033359;28;20037;-78
2023/05/05 05:36:26;;;;;;;5.90;4.68;;;17.70;62.80;;;;;;5032840;28;20056;-78
2023/05/05 05:38:52;;;;;;;5.82;4.80;;;17.70;62.80;;;;;;5032037;28;20475;-77
2023/05/05 05:41:18;;;;;;;5.75;4.93;;;17.70;63.50;;;;;;4983640;28;20033;-76
2023/05/05 05:43:44;;;;;;;6.03;4.53;;;17.70;62.80;;;;;;5016382;28;20425;-78
2023/05/05 05:46:11;;;;;;;6.40;4.95;;;17.70;62.80;;;;;;5032582;28;20025;-78
2023/05/05 05:48:38;;;;;;;5.90;4.68;;;17.70;62.90;;;;;;5032276;28;20616;-76
2023/05/05 05:51:04;;;;;;;5.55;4.68;;;17.60;62.80;;;;;;5032391;28;20021;-78
2023/05/05 05:53:30;;;;;;;5.88;4.40;;;17.60;62.80;;;;;;4999524;28;20040;-78
2023/05/05 05:55:56;;;;;;;5.25;4.32;;;17.60;62.90;;;;;;5033059;28;20379;-77
2023/05/05 05:58:22;;;;;;;5.95;4.80;;;17.60;62.90;;;;;;5015878;28;20128;-77
2023/05/05 06:00:48;;;;;;;5.60;4.47;;;17.60;62.90;;;;;;5032210;28;20030;-76
2023/05/05 06:03:14;;;;;;;5.15;4.03;;;17.60;62.90;;;;;;5032041;28;20156;-78
2023/05/05 06:05:40;;;;;;;5.20;4.07;;;17.60;62.90;;;;;;5032595;28;20018;-77
2023/05/05 06:08:06;;;;;;;5.47;4.10;;;17.60;62.90;;;;;;5032333;28;20045;-81
2023/05/05 06:10:37;;;;;;;4.85;4.03;;;17.60;62.90;;;;;;5033076;28;20532;-80
2023/05/05 06:13:10;;;;;;;4.97;3.90;;;17.50;62.80;;;;;;5033298;28;20045;-76
2023/05/05 06:15:39;;;;;;;4.88;3.88;;;17.60;62.90;;;;;;5032304;28;20433;-78
2023/05/05 06:18:06;;;;;;;5.68;4.13;;;17.60;62.90;;;;;;5016012;28;20355;-78
2023/05/05 06:20:31;;;;;;;4.80;3.67;;;17.50;62.90;;;;;;5015702;28;20040;-79
2023/05/05 06:22:57;;;;;;;5.45;4.03;;;17.50;62.90;;;;;;5032910;28;20091;-78
2023/05/05 06:25:25;;;;;;;4.75;3.65;;;17.50;63.00;;;;;;5035753;28;20116;-78
2023/05/05 06:27:51;;;;;;;5.00;3.85;;;17.50;63.10;;;;;;5003610;28;20032;-80
2023/05/05 06:30:17;;;;;;;5.00;4.07;;;17.50;63.10;;;;;;5003211;28;20033;-78
2023/05/05 06:32:42;;;;;;;5.72;4.28;;;17.60;63.20;;;;;;5019466;28;20033;-80
2023/05/05 06:35:09;;;;;;;4.32;3.40;;;17.50;63.10;;;;;;5036232;28;20416;-78
2023/05/05 06:37:34;;;;;;;4.82;3.88;;;17.50;63.20;;;;;;5037546;28;20037;-81
2023/05/05 06:40:00;;;;;;;5.25;4.15;;;17.50;63.20;;;;;;5055659;28;20152;-78
2023/05/05 06:42:26;;;;;;;4.93;3.67;;;17.50;63.10;;;;;;5021440;28;20041;-77
2023/05/05 06:44:52;;;;;;;4.80;3.55;;;17.60;63.20;;;;;;5004490;28;20025;-76
2023/05/05 06:47:18;;;;;;;4.65;3.33;;;17.60;63.30;;;;;;5037870;28;20121;-77
2023/05/05 06:49:44;;;;;;;4.97;3.30;;;17.60;63.30;;;;;;5020514;28;20053;-77
2023/05/05 06:52:10;;;;;;;4.97;3.65;;;17.60;63.30;;;;;;5037182;28;20512;-76
2023/05/05 06:54:35;;;;;;;4.78;3.97;;;17.50;63.20;;;;;;5037498;28;20089;-77
2023/05/05 06:57:01;;;;;;;5.13;3.75;;;17.60;63.30;;;;;;5036575;28;20029;-78
2023/05/05 06:59:27;;;;;;;4.38;3.58;;;17.60;63.40;;;;;;5003053;28;20387;-77
2023/05/05 07:01:53;;;;;;;5.03;3.45;;;17.50;63.40;;;;;;5036489;28;20562;-79
2023/05/05 07:04:20;;;;;;;4.50;3.60;;;17.50;63.40;;;;;;5035689;28;20087;-79
2023/05/05 07:06:45;;;;;;;5.90;3.72;;;17.60;63.50;;;;;;5019164;28;20039;-78
2023/05/05 07:09:11;;;;;;;5.63;4.20;;;17.60;63.60;;;;;;5035662;28;20026;-79
2023/05/05 07:11:37;;;;;;;5.70;3.88;;;17.60;63.60;;;;;;5002364;28;20077;-77
2023/05/05 07:14:03;;;;;;;4.78;3.50;;;17.60;63.60;;;;;;5035341;28;20062;-78
2023/05/05 07:16:28;;;;;;;5.95;4.35;;;17.60;63.70;;;;;;5051536;28;20159;-76
2023/05/05 07:18:54;;;;;;;5.28;3.90;;;17.60;63.80;;;;;;5018515;28;20596;-78
2023/05/05 07:21:20;;;;;;;4.88;3.58;;;17.60;63.80;;;;;;5018633;28;20116;-80
2023/05/05 07:23:46;;;;;;;5.97;4.18;;;17.60;63.80;;;;;;5035094;28;20375;-77
2023/05/05 07:26:13;;;;;;;4.85;3.78;;;17.60;63.80;;;;;;5034988;28;20474;-77
2023/05/05 07:28:38;;;;;;;5.22;3.72;;;17.60;63.90;;;;;;5018469;28;20029;-77
2023/05/05 07:31:04;;;;;;;5.28;3.80;;;17.70;63.90;;;;;;5035147;28;20390;-77
2023/05/05 07:33:30;;;;;;;4.97;3.97;;;17.70;63.90;;;;;;5034526;28;20096;-77
2023/05/05 07:35:56;;;;;;;5.22;4.00;;;17.70;63.90;;;;;;5036472;28;20040;-78
2023/05/05 07:38:22;;;;;;;5.88;4.35;;;17.70;64.00;;;;;;5001709;28;20455;-78
2023/05/05 07:40:47;;;;;;;5.50;3.95;;;17.70;64.00;;;;;;5017927;28;20038;-80
2023/05/05 07:43:13;;;;;;;6.13;4.25;;;17.70;64.00;;;;;;5034895;28;20409;-77
2023/05/05 07:45:41;;;;;;;5.82;4.28;;;17.70;64.00;;;;;;5018888;28;20032;-78
2023/05/05 07:48:07;;;;;;;5.60;4.18;;;17.80;64.10;;;;;;5034724;28;20128;-77
2023/05/05 07:50:33;;;;;;;5.75;4.05;;;17.80;64.00;;;;;;5034978;28;20029;-77
2023/05/05 07:52:59;;;;;;;6.20;4.40;;;17.80;64.00;;;;;;5034430;28;20394;-77
2023/05/05 07:55:24;;;;;;;5.53;4.07;;;17.80;64.00;;;;;;5018115;28;20033;-77
2023/05/05 07:57:50;;;;;;;5.68;4.28;;;17.80;64.00;;;;;;5034490;28;20065;-79
2023/05/05 08:00:18;;;;;;;5.50;4.28;;;17.90;64.00;;;;;;4986292;28;20383;-79
2023/05/05 08:02:47;;;;;;;5.40;4.05;;;17.90;64.00;;;;;;5035390;28;20375;-77
2023/05/05 08:05:13;;;;;;;6.05;4.55;;;18.00;64.00;;;;;;5034262;28;20025;-78
2023/05/05 08:07:40;;;;;;;4.82;3.78;;;18.00;63.90;;;;;;5034413;28;20404;-79
2023/05/05 08:10:08;;;;;;;5.13;3.85;;;18.10;63.90;;;;;;5017856;28;20037;-77
2023/05/05 08:12:35;;;;;;;5.15;3.63;;;18.20;63.90;;;;;;5034518;28;20045;-77
2023/05/05 08:15:00;;;;;;;4.85;3.80;;;18.20;63.80;;;;;;5034647;28;20041;-79
2023/05/05 08:17:26;;;;;;;5.75;4.25;;;18.20;63.70;;;;;;5034194;28;20493;-78
2023/05/05 08:19:52;;;;;;;4.80;3.58;;;18.30;63.70;;;;;;5018054;28;20498;-79
2023/05/05 08:22:19;;;;;;;5.55;4.15;;;18.40;64.30;;;;;;5034237;28;20041;-78
2023/05/05 08:24:45;;;;;;;4.93;3.42;;;18.40;63.60;;;;;;5033882;28;20026;-78
2023/05/05 08:27:12;;;;;;;5.75;4.03;;;18.50;63.50;;;;;;5034047;28;20049;-78
2023/05/05 08:29:38;;;;;;;5.13;3.80;;;18.50;63.40;;;;;;5017700;28;20030;-77
2023/05/05 08:32:04;;;;;;;5.05;3.70;;;18.60;63.30;;;;;;5035216;28;20084;-78
2023/05/05 08:34:30;;;;;;;5.60;3.90;;;18.70;63.30;;;;;;5034935;28;20033;-78
2023/05/05 08:36:56;;;;;;;5.80;4.28;;;18.80;63.30;;;;;;5017368;28;20470;-77
2023/05/05 08:39:21;;;;;;;5.25;4.07;;;18.90;63.20;;;;;;5033634;28;20053;-77
2023/05/05 08:41:48;;;;;;;4.93;3.78;;;19.00;63.20;;;;;;5001624;28;20042;-78
2023/05/05 08:44:13;;;;;;;5.13;3.72;;;19.00;63.10;;;;;;5017275;28;20049;-79
2023/05/05 08:46:40;;;;;;;5.82;4.03;;;19.10;63.10;;;;;;5016545;28;20033;-79
2023/05/05 08:49:13;;;;;;;4.72;3.63;;;19.10;63.00;;;;;;5016951;28;20044;-79
2023/05/05 08:51:41;;;;;;;4.82;3.42;;;19.20;62.90;;;;;;5033817;28;20068;-79
2023/05/05 08:54:13;;;;;;;4.95;3.70;;;19.30;62.90;;;;;;5033694;28;20029;-79
2023/05/05 08:56:42;;;;;;;5.28;3.85;;;19.40;62.90;;;;;;5033907;28;20032;-78
2023/05/05 08:59:12;;;;;;;5.60;3.50;;;19.50;62.80;;;;;;5033245;28;20505;-79
2023/05/05 09:01:40;;;;;;;5.18;3.50;;;19.60;62.80;;;;;;5016808;28;20072;-79
2023/05/05 09:04:07;;;;;;;4.75;3.30;;;19.60;62.70;;;;;;5033155;28;20018;-79
2023/05/05 09:06:34;;;;;;;4.20;3.20;;;19.70;62.80;;;;;;5034388;28;20032;-80
2023/05/05 09:09:00;;;;;;;4.75;3.58;;;19.80;62.70;;;;;;5033417;28;20026;-80
2023/05/05 09:11:27;;;;;;;4.35;3.35;;;19.90;62.80;;;;;;5032854;28;20037;-77
2023/05/05 09:13:53;;;;;;;4.10;3.25;;;19.90;62.70;;;;;;5033298;28;20041;-81
2023/05/05 09:16:19;;;;;;;5.10;3.22;;;20.00;62.70;;;;;;5016729;28;20450;-76
2023/05/05 09:18:45;;;;;;;4.28;2.92;;;20.10;62.70;;;;;;5017145;28;20034;-76
2023/05/05 09:21:23;;;;;;;4.88;3.25;;;20.20;62.70;;;;;;5016411;28;20044;-76
2023/05/05 09:24:08;;;;;;;4.28;3.03;;;20.20;62.80;;;;;;5033895;28;20033;-76
2023/05/05 09:26:35;;;;;;;4.43;3.30;;;20.30;62.80;;;;;;5034080;28;20025;-75
2023/05/05 09:29:02;;;;;;;4.78;3.25;;;20.40;62.70;;;;;;5033100;28;20022;-76
2023/05/05 09:31:30;;;;;;;4.97;2.88;;;20.40;62.80;;;;;;5033026;28;20099;-76
2023/05/05 09:33:59;;;;;;;4.78;3.08;;;20.40;62.80;;;;;;5034393;28;20080;-76
2023/05/05 09:36:41;;;;;;;4.38;2.75;;;20.50;62.90;;;;;;5032912;28;20198;-77
2023/05/05 09:39:07;;;;;;;4.80;3.20;;;20.60;63.00;;;;;;5016631;28;20137;-79
2023/05/05 09:41:38;;;;;;;6.63;3.58;;;20.60;62.90;;;;;;5016349;28;20461;-78
2023/05/05 09:44:03;;;;;;;4.05;2.90;;;20.70;63.10;;;;;;5016447;28;20044;-79
2023/05/05 09:46:29;;;;;;;3.90;3.03;;;20.70;63.00;;;;;;5032744;28;20025;-77
2023/05/05 09:48:55;;;;;;;3.53;2.70;;;20.80;63.10;;;;;;5033923;28;20033;-79
2023/05/05 09:51:30;;;;;;;4.47;2.92;;;20.90;63.20;;;;;;5033714;28;20045;-78
2023/05/05 09:53:56;;;;;;;4.13;2.67;;;20.90;63.20;;;;;;5032176;28;20084;-78
2023/05/05 09:56:41;;;;;;;4.35;2.63;;;21.00;63.10;;;;;;5016587;28;20057;-77
2023/05/05 09:59:08;;;;;;;3.97;2.88;;;21.10;63.20;;;;;;5033888;28;20029;-77
2023/05/05 10:01:34;;;;;;;4.18;2.60;;;21.10;62.90;;;;;;5032294;28;20044;-79
2023/05/05 10:03:59;;;;;;;4.15;2.92;;;21.20;62.90;;;;;;5032274;28;20041;-79
2023/05/05 10:06:46;;;;;;;6.07;3.05;;;21.20;62.90;;;;;;5015822;28;20030;-80
2023/05/05 10:09:13;;;;;;;3.70;2.80;;;21.30;63.00;;;;;;5033068;28;20442;-80
2023/05/05 10:11:41;;;;;;;5.00;3.10;;;21.40;62.70;;;;;;5016001;28;20034;-80
2023/05/05 10:14:07;;;;;;;5.15;2.85;;;21.40;62.40;;;;;;5015627;28;20041;-79
2023/05/05 10:16:34;;;;;;;5.00;3.38;;;21.50;62.20;;;;;;5034281;28;20036;-77
2023/05/05 10:19:03;;;;;;;7.10;3.65;;;21.50;62.10;;;;;;5034570;28;20517;-78
2023/05/05 10:21:35;;;;;;;5.63;2.78;;;21.60;62.10;;;;;;5017407;28;20037;-79
2023/05/05 10:24:16;;;;;;;5.00;2.95;;;21.60;62.10;;;;;;5032717;28;20032;-77
2023/05/05 10:26:44;;;;;;;4.47;2.83;;;21.70;62.20;;;;;;5032401;28;20036;-79
2023/05/05 10:29:19;;;;;;;4.60;3.00;;;21.80;62.20;;;;;;5032514;28;20034;-78
2023/05/05 10:31:46;;;;;;;;;;;21.80;62.20;;;;;;5016773;28;20125;-78
2023/05/05 10:34:24;;;;;;;3.40;2.35;;;21.90;62.10;;;;;;5033540;28;20262;-79
2023/05/05 10:36:50;;;;;;;3.80;2.47;;;21.90;62.00;;;;;;5048365;28;20040;-79
2023/05/05 10:39:18;;;;;;;3.58;2.60;;;22.00;62.10;;;;;;5031647;28;20522;-77
2023/05/05 10:41:46;;;;;;;3.58;2.42;;;22.00;62.10;;;;;;5015967;28;20359;-81
2023/05/05 10:44:13;;;;;;;3.47;2.42;;;22.10;62.20;;;;;;5015302;28;20494;-78
2023/05/05 10:46:40;;;;;;;3.42;2.53;;;22.10;62.10;;;;;;5032086;28;20022;-76
2023/05/05 10:49:21;;;;;;;4.38;3.03;;;22.10;62.70;;;;;;5033004;28;20035;-77
2023/05/05 10:52:07;;;;;;;2.90;2.28;;;22.10;62.10;;;;;;5031488;28;20112;-78
2023/05/05 10:55:00;;;;;;;3.90;2.38;;;22.20;62.10;;;;;;5021233;28;20045;-77
2023/05/05 10:57:28;;;;;;;3.60;2.25;;;22.30;62.10;;;;;;5021194;28;20041;-77
2023/05/05 10:59:54;;;;;;;2.95;2.17;;;22.30;62.00;;;;;;5015342;28;20025;-78
2023/05/05 11:02:26;;;;;;;3.13;2.50;;;22.30;62.00;;;;;;5033139;28;20037;-78
2023/05/05 11:05:11;;;;;;;3.33;2.45;;;22.40;62.10;;;;;;5033501;28;20044;-78
2023/05/05 11:07:37;;;;;;;3.28;2.05;;;22.40;62.00;;;;;;5031446;28;20505;-78
2023/05/05 11:10:07;;;;;;;2.55;2.10;;;22.40;61.90;;;;;;5033949;28;20029;-80
2023/05/05 11:12:53;;;;;;;3.83;2.75;;;22.50;62.00;;;;;;5035599;28;20536;-77
2023/05/05 11:15:28;;;;;;;3.20;2.00;;;22.50;61.90;;;;;;5035053;28;20029;-79
2023/05/05 11:17:54;;;;;;;3.25;1.80;;;22.50;61.90;;;;;;5036101;28;20091;-77
2023/05/05 11:20:36;;;;;;;2.92;1.98;;;22.50;61.80;;;;;;5035863;28;20060;-79
2023/05/05 11:23:02;;;;;;;3.20;2.30;;;22.50;61.90;;;;;;5036066;28;20037;-79
2023/05/05 11:25:34;;;;;;;2.08;1.80;;;22.50;61.80;;;;;;5035641;28;20427;-79
2023/05/05 11:28:10;;;;;;;3.50;2.00;;;22.60;61.90;;;;;;5018696;28;20389;-78
2023/05/05 11:30:57;;;;;;;2.38;1.80;;;22.60;61.90;;;;;;5034877;28;20065;-78
2023/05/05 11:33:37;;;;;;;2.28;1.85;;;22.60;61.90;;;;;;5034627;28;20038;-79
2023/05/05 11:36:07;;;;;;;2.40;1.83;;;22.60;61.90;;;;;;5035183;28;20029;-80
2023/05/05 11:39:04;;;;;;;3.17;1.80;;;22.60;61.90;;;;;;5034827;28;20085;-79
2023/05/05 11:41:33;;;;;;;1.95;1.70;;;22.70;62.00;;;;;;5035515;28;20034;-78
2023/05/05 11:44:16;;;;;;;2.30;1.55;;;22.60;61.90;;;;;;5034761;28;20060;-79
2023/05/05 11:46:51;;;;;;;2.33;1.60;;;22.60;62.00;;;;;;5052151;28;20061;-80
2023/05/05 11:49:38;;;;;;;2.60;1.70;;;22.60;61.90;;;;;;5034698;28;20068;-81
2023/05/05 11:52:05;;;;;;;2.28;1.20;;;22.60;61.90;;;;;;5034373;28;20087;-80
2023/05/05 11:54:33;;;;;;;2.53;1.45;;;22.60;61.80;;;;;;5017920;28;20072;-81
2023/05/05 11:57:07;;;;;;;1.80;1.30;;;22.50;61.80;;;;;;5034366;28;20034;-87
2023/05/05 11:59:35;;;;;;;;;;;22.50;61.90;;;;;;5020210;28;20037;-82
2023/05/05 12:02:02;;;;;;;1.65;1.10;;;22.50;62.00;;;;;;5034386;28;19912;-84
2023/05/05 12:04:31;;;;;;;1.30;1.00;;;22.50;62.00;;;;;;5034716;28;20144;-81
2023/05/05 12:06:58;;;;;;;1.20;1.10;;;22.40;61.90;;;;;;5017829;28;20116;-83
2023/05/05 12:09:24;;;;;;;1.20;1.10;;;22.40;62.00;;;;;;5035498;28;20091;-85
2023/05/05 12:12:00;;;;;;;1.10;0.90;;;22.30;62.00;;;;;;5038479;28;20025;-82
2023/05/05 12:14:26;;;;;;;1.20;0.98;;;22.30;62.00;;;;;;5039495;28;20033;-81
2023/05/05 12:17:05;;;;;;;1.83;1.13;;;22.30;62.10;;;;;;5019879;28;20463;-81
2023/05/05 12:19:32;;;;;;;1.05;0.93;;;22.30;62.20;;;;;;5035326;28;20433;-81
2023/05/05 12:21:59;;;;;;;0.70;0.70;;;22.20;62.10;;;;;;5016143;28;20034;-82
2023/05/05 12:24:25;;;;;;;1.02;0.80;;;22.10;62.20;;;;;;5034221;28;20352;-85
2023/05/05 12:26:51;;;;;;;0.70;0.70;;;22.10;62.20;;;;;;5034917;28;20030;-83
2023/05/05 12:29:28;;;;;;;0.90;0.80;;;22.10;62.30;;;;;;5033642;28;20516;-81
2023/05/05 12:31:54;;;;;;;1.85;0.95;;;22.10;62.40;;;;;;5034108;28;20034;-80
2023/05/05 12:34:21;;;;;;;0.75;0.73;;;22.00;62.30;;;;;;5017414;28;20067;-83
2023/05/05 12:36:48;;;;;;;0.88;0.82;;;22.00;63.10;;;;;;5001952;28;20033;-85
2023/05/05 12:39:14;;;;;;;1.35;0.80;;;21.90;62.40;;;;;;5017312;28;20375;-81
2023/05/05 12:41:40;;;;;;;1.40;0.70;;;21.90;62.50;;;;;;5001215;28;20033;-80
2023/05/05 12:44:05;;;;;;;0.95;0.65;;;21.80;62.50;;;;;;5017029;28;20049;-79
2023/05/05 12:46:46;;;;;;;0.90;0.80;;;21.80;62.60;;;;;;5034135;28;20057;-81
2023/05/05 12:49:13;;;;;;;0.80;0.80;;;21.80;62.60;;;;;;5035196;28;20033;-82
2023/05/05 12:51:51;;;;;;;0.95;0.70;;;21.70;62.70;;;;;;5034457;28;20025;-81
2023/05/05 12:54:17;;;;;;;1.73;0.77;;;21.70;62.70;;;;;;5034887;28;20462;-82
2023/05/05 12:56:45;;;;;;;0.60;0.60;;;21.60;62.70;;;;;;5000584;28;20025;-81
2023/05/05 12:59:28;;;;;;;1.17;0.80;;;21.60;62.80;;;;;;5034937;28;20030;-81